Accueil
METAR-TAF:

METAR-TAF

Aéroports :

Base aérienne de Nörvenich

Nörvenich, Allemagne

latitude: 50-50N, longitude: 006-40E, altitude: 118 m

Observation

Le bulletin a été fait il y a 1 heure et 11 minutes, à 00:20 UTC
Vent 7 kt de ouest/sud-ouest
Température 16°C
Humidité 82%
Pression 1012 hPa
Visibilité 10 km ou plus
Quelques nuages à une hauteur de 1100 ft
Nuages épars à une hauteur de 2000 ft
Nuages fragmentés à une hauteur de 8000 ft

METAR: ETNN 020020Z 24007KT 9999 FEW011 SCT020 BKN080 16/13 Q1012 BLU

Heure: 03:31 (01:31 UTC)


TAF: absent

Observations et prévisions météorologiques de plus de 4000 aéroports (messages METAR et TAF).

Les stations disponibles sont représentées par des disques jaunes et rouges sur la carte.

Passer la souris dessus pour voir le nom de la station.

Cliquer dessus pour voir les observations et prévisions météorologiques.

Pour changer de carte: cliquez sur les boutons verts avec une croix noire pour zoomer, sur le bouton vert avec un tiret pour effectuer un zoom arrière, ou sur les flèches vertes pour les cartes adjacentes.


METAR-TAF: